Time;durP1;ratioP1;P1;durP2;ratioP2;P2;SDS_P1;SDS_P2;PMS_P1;PMS_P2;Temp;Humidity;BMP_temperature;BMP_pressure;BME280_temperature;BME280_humidity;BME280_pressure;Samples;Min_cycle;Max_cycle;Signal;HPM_P1;HPM_P2
2023/04/25 00:00:55;;;;;;;13.13;4.37;;;7.10;99.90;;;;;;4877132;29;20759;-78
2023/04/25 00:03:24;;;;;;;12.90;4.37;;;7.10;99.90;;;;;;4889875;29;20687;-79
2023/04/25 00:05:52;;;;;;;12.53;4.40;;;7.00;99.90;;;;;;4887585;29;20216;-77
2023/04/25 00:08:18;;;;;;;11.40;4.17;;;7.00;99.90;;;;;;4891051;29;20688;-78
2023/04/25 00:10:45;;;;;;;16.67;4.90;;;7.00;99.90;;;;;;4889546;29;20246;-77
2023/04/25 00:13:13;;;;;;;14.47;5.30;;;6.90;99.90;;;;;;4891523;29;20202;-78
2023/04/25 00:15:42;;;;;;;15.87;4.67;;;6.90;99.90;;;;;;4886459;29;20231;-77
2023/04/25 00:18:09;;;;;;;17.90;5.40;;;6.90;99.90;;;;;;4889608;29;20217;-78
2023/04/25 00:20:36;;;;;;;13.17;4.50;;;7.70;99.90;;;;;;4887155;29;20256;-79
2023/04/25 00:23:02;;;;;;;19.43;5.57;;;6.90;99.90;;;;;;4890397;29;20807;-79
2023/04/25 00:25:29;;;;;;;20.87;5.63;;;7.00;99.90;;;;;;4888841;29;20211;-78
2023/04/25 00:27:56;;;;;;;12.53;5.10;;;6.80;99.90;;;;;;4889547;29;20223;-78
2023/04/25 00:30:23;;;;;;;14.40;4.97;;;6.80;99.90;;;;;;4887469;29;20402;-78
2023/04/25 00:32:50;;;;;;;21.00;5.67;;;6.70;99.90;;;;;;4890443;29;20561;-78
2023/04/25 00:35:17;;;;;;;15.47;6.63;;;6.70;99.90;;;;;;4889420;29;20779;-79
2023/04/25 00:37:44;;;;;;;16.50;6.30;;;6.70;99.90;;;;;;4890728;29;20262;-78
2023/04/25 00:40:11;;;;;;;17.00;5.63;;;6.60;99.90;;;;;;4886618;29;20252;-77
2023/04/25 00:42:40;;;;;;;20.27;5.83;;;6.60;99.90;;;;;;4892686;29;20242;-77
2023/04/25 00:45:09;;;;;;;17.53;6.47;;;6.50;99.90;;;;;;4886441;29;20227;-78
2023/04/25 00:47:36;;;;;;;13.30;5.07;;;6.60;99.90;;;;;;4888728;29;20247;-77
2023/04/25 00:50:03;;;;;;;22.77;6.57;;;6.60;99.90;;;;;;4886935;29;20221;-78
2023/04/25 00:52:30;;;;;;;27.57;6.03;;;6.60;99.90;;;;;;4889175;29;20218;-78
2023/04/25 00:54:56;;;;;;;18.33;5.93;;;6.60;99.90;;;;;;4889993;29;20243;-78
2023/04/25 00:57:23;;;;;;;19.47;5.90;;;6.60;99.90;;;;;;4890204;29;20245;-80
2023/04/25 00:59:52;;;;;;;16.23;6.57;;;6.60;99.90;;;;;;4886994;29;20252;-79
2023/04/25 01:02:20;;;;;;;25.83;5.77;;;6.60;99.90;;;;;;4891575;29;20253;-78
2023/04/25 01:04:47;;;;;;;22.80;6.57;;;6.60;99.90;;;;;;4894524;29;20234;-79
2023/04/25 01:07:15;;;;;;;18.63;6.37;;;6.60;99.90;;;;;;4894280;29;20632;-77
2023/04/25 01:09:42;;;;;;;15.93;5.87;;;6.60;99.90;;;;;;4892800;29;20255;-78
2023/04/25 01:12:09;;;;;;;28.60;6.20;;;6.60;99.90;;;;;;4889512;29;20777;-78
2023/04/25 01:14:36;;;;;;;18.80;5.43;;;6.70;99.90;;;;;;4873765;29;20620;-80
2023/04/25 01:17:02;;;;;;;21.83;6.40;;;6.60;99.90;;;;;;4875350;29;20236;-78
2023/04/25 01:19:30;;;;;;;24.80;6.13;;;6.60;99.90;;;;;;4874904;29;20208;-79
2023/04/25 01:21:57;;;;;;;22.03;5.10;;;6.50;99.90;;;;;;4874767;29;20899;-78
2023/04/25 01:24:24;;;;;;;26.00;6.23;;;6.50;99.90;;;;;;4874208;29;20211;-78
2023/04/25 01:26:56;;;;;;;16.73;5.50;;;6.50;99.90;;;;;;4873474;29;20306;-78
2023/04/25 01:29:24;;;;;;;19.93;6.90;;;6.40;99.90;;;;;;4877604;29;20595;-78
2023/04/25 01:31:52;;;;;;;23.83;6.10;;;6.40;99.90;;;;;;4874924;29;20199;-79
2023/04/25 01:34:20;;;;;;;24.17;5.27;;;6.40;99.90;;;;;;4872871;29;20682;-78
2023/04/25 01:37:26;;;;;;;20.33;6.47;;;6.30;99.90;;;;;;4888086;29;20258;-78
2023/04/25 01:40:49;;;;;;;;;;;;;;;;;;;;;
2023/04/25 01:44:09;;;;;;;22.53;5.90;;;6.20;99.90;;;;;;4834650;29;20230;-80
2023/04/25 01:51:35;;;;;;;25.13;6.20;;;6.20;99.90;;;;;;4801649;29;20241;-79
2023/04/25 01:55:56;;;;;;;;;;;;;;;;;;;;;
2023/04/25 01:58:18;;;;;;;14.70;6.43;;;6.20;99.90;;;;;;4783193;29;20231;-78
2023/04/25 02:00:45;;;;;;;18.23;6.00;;;6.10;99.90;;;;;;4797057;29;20299;-79
2023/04/25 02:03:12;;;;;;;24.83;7.00;;;6.10;99.90;;;;;;4799562;29;20304;-78
2023/04/25 02:05:40;;;;;;;24.73;6.07;;;6.10;99.90;;;;;;4795684;29;20213;-78
2023/04/25 02:08:08;;;;;;;17.70;5.40;;;6.10;99.90;;;;;;4784898;29;20229;-79
2023/04/25 02:10:35;;;;;;;18.63;5.87;;;6.00;99.90;;;;;;4802094;29;20210;-79
2023/04/25 02:13:04;;;;;;;23.20;5.70;;;6.00;99.90;;;;;;4797483;29;20201;-78
2023/04/25 02:15:31;;;;;;;19.70;4.97;;;6.10;99.90;;;;;;4815286;29;20238;-78
2023/04/25 02:17:59;;;;;;;20.17;5.90;;;5.90;99.90;;;;;;4816255;29;20315;-78
2023/04/25 02:20:29;;;;;;;22.50;5.67;;;5.90;99.90;;;;;;4806559;29;20223;-79
2023/04/25 02:22:56;;;;;;;20.17;5.10;;;5.80;99.90;;;;;;4873854;29;20239;-78
2023/04/25 02:25:23;;;;;;;22.27;5.93;;;5.80;99.90;;;;;;4870936;29;20235;-78
2023/04/25 02:27:51;;;;;;;19.13;5.60;;;5.80;99.90;;;;;;4874085;29;20306;-79
2023/04/25 02:30:18;;;;;;;18.27;6.47;;;5.80;99.90;;;;;;4870570;29;20227;-78
2023/04/25 02:32:44;;;;;;;17.70;4.47;;;5.70;99.90;;;;;;4872987;29;20386;-78
2023/04/25 02:35:11;;;;;;;19.87;5.30;;;5.60;99.90;;;;;;4873291;29;20806;-78
2023/04/25 02:37:39;;;;;;;21.50;5.50;;;5.60;99.90;;;;;;4871878;29;20293;-79
2023/04/25 02:40:07;;;;;;;21.53;5.10;;;5.60;99.90;;;;;;4870615;29;20243;-78
2023/04/25 02:42:33;;;;;;;17.83;5.30;;;5.60;99.90;;;;;;4872876;29;20314;-77
2023/04/25 02:45:01;;;;;;;20.20;5.57;;;5.60;99.90;;;;;;4872589;29;20228;-77
2023/04/25 02:47:28;;;;;;;17.53;4.90;;;5.50;99.90;;;;;;4885645;29;20650;-80
2023/04/25 02:49:55;;;;;;;23.70;5.43;;;5.50;99.90;;;;;;4874406;29;20219;-78
2023/04/25 02:52:22;;;;;;;14.37;4.80;;;5.50;99.90;;;;;;4874655;29;20613;-78
2023/04/25 02:54:49;;;;;;;15.37;4.87;;;5.40;99.90;;;;;;4873510;29;20216;-79
2023/04/25 02:57:16;;;;;;;19.00;5.87;;;5.40;99.90;;;;;;4888033;29;20220;-78
2023/04/25 02:59:43;;;;;;;16.33;5.63;;;5.40;99.90;;;;;;4869909;29;20238;-79
2023/04/25 03:02:09;;;;;;;16.97;5.23;;;5.40;99.90;;;;;;4872787;29;20213;-80
2023/04/25 03:04:36;;;;;;;22.90;5.47;;;5.50;99.90;;;;;;4872246;29;20208;-79
2023/04/25 03:07:04;;;;;;;19.53;5.47;;;5.50;99.90;;;;;;4872531;29;20275;-79
2023/04/25 03:09:31;;;;;;;24.50;5.93;;;5.70;99.90;;;;;;4871459;29;20317;-79
2023/04/25 03:11:58;;;;;;;20.63;6.07;;;5.60;99.90;;;;;;4872162;29;20250;-78
2023/04/25 03:14:25;;;;;;;19.90;5.77;;;5.60;99.90;;;;;;4873460;29;20911;-79
2023/04/25 03:16:51;;;;;;;18.77;5.63;;;5.70;99.90;;;;;;4886509;29;20235;-80
2023/04/25 03:19:18;;;;;;;17.20;5.13;;;5.70;99.90;;;;;;4873214;29;20637;-78
2023/04/25 03:21:45;;;;;;;15.63;5.17;;;5.70;99.90;;;;;;4870252;29;20635;-80
2023/04/25 03:24:12;;;;;;;17.17;4.90;;;5.80;99.90;;;;;;4874891;29;20216;-79
2023/04/25 03:26:39;;;;;;;17.07;5.13;;;5.80;99.90;;;;;;4889011;29;20225;-79
2023/04/25 03:29:06;;;;;;;13.87;4.87;;;5.80;99.90;;;;;;4871629;29;20700;-79
2023/04/25 03:31:35;;;;;;;21.60;5.47;;;5.90;99.90;;;;;;4875155;29;20209;-78
2023/04/25 03:34:02;;;;;;;11.70;4.50;;;5.90;99.90;;;;;;4871335;29;20222;-77
2023/04/25 03:36:28;;;;;;;18.63;5.60;;;5.90;99.90;;;;;;4875439;29;20231;-79
2023/04/25 03:38:55;;;;;;;11.07;4.43;;;5.90;99.90;;;;;;4867396;29;20253;-78
2023/04/25 03:41:22;;;;;;;16.50;4.40;;;6.00;99.90;;;;;;4871237;29;20701;-78
2023/04/25 03:43:49;;;;;;;16.70;5.37;;;6.00;99.90;;;;;;4872392;29;20749;-78
2023/04/25 03:46:16;;;;;;;13.83;4.50;;;6.00;99.90;;;;;;4873844;29;20199;-78
2023/04/25 03:48:43;;;;;;;20.37;4.83;;;6.00;99.90;;;;;;4868023;29;20207;-78
2023/04/25 03:51:10;;;;;;;16.20;5.23;;;6.00;99.90;;;;;;4871958;29;20275;-77
2023/04/25 03:53:37;;;;;;;17.30;4.93;;;5.90;99.90;;;;;;4872230;29;20215;-78
2023/04/25 03:56:04;;;;;;;10.37;3.97;;;5.90;99.90;;;;;;4873006;29;20207;-78
2023/04/25 03:58:31;;;;;;;16.83;4.80;;;5.90;99.90;;;;;;4870586;29;20247;-78
2023/04/25 04:00:58;;;;;;;13.90;4.53;;;5.90;99.90;;;;;;4872404;29;20218;-78
2023/04/25 04:03:24;;;;;;;14.10;4.67;;;5.80;99.90;;;;;;4870352;29;20212;-79
2023/04/25 04:05:52;;;;;;;13.47;5.23;;;6.00;99.90;;;;;;4874770;29;20252;-79
2023/04/25 04:08:18;;;;;;;10.77;4.60;;;6.00;99.90;;;;;;4869114;29;20218;-79
2023/04/25 04:10:45;;;;;;;12.33;4.63;;;6.00;99.90;;;;;;4874711;29;20326;-78
2023/04/25 04:13:13;;;;;;;14.17;5.40;;;6.00;99.90;;;;;;4878499;29;20273;-79
2023/04/25 04:15:40;;;;;;;13.43;4.60;;;6.00;99.90;;;;;;4871840;29;20318;-79
2023/04/25 04:18:07;;;;;;;15.17;4.90;;;6.00;99.90;;;;;;4874837;29;20251;-79
2023/04/25 04:20:34;;;;;;;19.97;4.93;;;6.00;99.90;;;;;;4872076;29;20212;-79
2023/04/25 04:23:01;;;;;;;20.07;6.17;;;6.00;99.90;;;;;;4869330;29;20238;-78
2023/04/25 04:25:28;;;;;;;24.87;6.17;;;5.90;99.90;;;;;;4872144;29;20307;-78
2023/04/25 04:27:55;;;;;;;13.37;4.27;;;5.90;99.90;;;;;;4856914;29;20211;-79
2023/04/25 04:30:24;;;;;;;17.43;4.30;;;5.90;99.90;;;;;;4868579;29;20228;-78
2023/04/25 04:32:51;;;;;;;12.77;4.53;;;5.90;99.90;;;;;;4871416;29;20599;-79
2023/04/25 04:35:18;;;;;;;17.13;5.17;;;5.90;99.90;;;;;;4869810;29;20223;-79
2023/04/25 04:37:45;;;;;;;8.97;3.80;;;5.90;99.90;;;;;;4885532;29;20234;-78
2023/04/25 04:40:15;;;;;;;12.73;4.93;;;5.90;99.90;;;;;;4873238;29;20200;-79
2023/04/25 04:42:45;;;;;;;8.90;3.50;;;5.90;99.90;;;;;;4868487;29;20609;-79
2023/04/25 04:45:12;;;;;;;9.40;3.47;;;5.90;99.90;;;;;;4871613;29;20229;-79
2023/04/25 04:47:40;;;;;;;13.00;4.47;;;5.90;99.90;;;;;;4883693;29;20207;-78
2023/04/25 04:50:11;;;;;;;15.30;3.67;;;5.90;99.90;;;;;;4870742;29;20207;-78
2023/04/25 04:52:38;;;;;;;5.97;2.77;;;5.90;99.90;;;;;;4870065;29;20617;-77
2023/04/25 04:55:05;;;;;;;8.43;3.00;;;5.90;99.90;;;;;;4885862;29;20243;-78
2023/04/25 04:57:32;;;;;;;6.17;2.47;;;5.80;99.90;;;;;;4877128;29;20231;-79
2023/04/25 05:00:00;;;;;;;6.30;2.53;;;5.80;99.90;;;;;;4871765;29;20280;-78
2023/04/25 05:02:27;;;;;;;8.57;2.70;;;5.90;99.90;;;;;;4876946;29;20301;-78
2023/04/25 05:04:56;;;;;;;11.43;3.00;;;5.90;99.90;;;;;;4872617;29;20303;-77
2023/04/25 05:07:23;;;;;;;11.77;3.00;;;5.80;99.90;;;;;;4876590;29;20863;-77
2023/04/25 05:09:50;;;;;;;8.07;2.37;;;5.80;99.90;;;;;;4868209;29;20286;-77
2023/04/25 05:12:16;;;;;;;8.30;2.57;;;5.80;99.90;;;;;;4869806;29;20240;-76
2023/04/25 05:14:43;;;;;;;11.83;2.60;;;5.80;99.90;;;;;;4875829;29;20266;-78
2023/04/25 05:17:10;;;;;;;4.53;2.30;;;5.70;99.90;;;;;;4874454;29;20314;-78
2023/04/25 05:19:37;;;;;;;7.27;2.43;;;5.70;99.90;;;;;;4872177;29;20215;-78
2023/04/25 05:22:04;;;;;;;5.37;2.37;;;5.70;99.90;;;;;;4872213;29;20611;-77
2023/04/25 05:24:31;;;;;;;5.87;3.10;;;5.70;99.90;;;;;;4886606;29;20246;-78
2023/04/25 05:26:58;;;;;;;10.80;2.83;;;5.70;99.90;;;;;;4876841;29;20235;-78
2023/04/25 05:29:25;;;;;;;10.10;2.70;;;5.70;99.90;;;;;;4870087;29;20307;-78
2023/04/25 05:31:52;;;;;;;9.57;3.10;;;5.70;99.90;;;;;;4874668;29;20358;-77
2023/04/25 05:34:19;;;;;;;9.23;2.77;;;5.80;99.90;;;;;;4884702;29;20288;-79
2023/04/25 05:36:48;;;;;;;8.70;3.17;;;5.80;99.90;;;;;;4875712;29;20571;-78
2023/04/25 05:39:17;;;;;;;7.23;3.47;;;5.80;99.90;;;;;;4872094;29;20199;-77
2023/04/25 05:41:44;;;;;;;12.53;3.07;;;5.80;99.90;;;;;;4874320;29;20603;-79
2023/04/25 05:44:11;;;;;;;7.03;2.97;;;5.80;99.90;;;;;;4870878;29;20227;-78
2023/04/25 05:46:37;;;;;;;8.77;3.20;;;5.90;99.90;;;;;;4874820;29;20330;-77
2023/04/25 05:49:04;;;;;;;7.27;3.13;;;5.90;99.90;;;;;;4872550;29;20262;-77
2023/04/25 05:52:14;;;;;;;7.23;3.10;;;6.00;99.90;;;;;;4874560;29;20199;-77
2023/04/25 05:58:55;;;;;;;10.97;2.97;;;6.10;99.90;;;;;;4927461;29;20240;-78
2023/04/25 06:02:12;;;;;;;10.67;3.80;;;6.20;99.90;;;;;;4930342;29;20304;-78
2023/04/25 06:05:07;;;;;;;15.53;4.97;;;6.30;99.90;;;;;;4920176;29;20265;-77
2023/04/25 06:08:07;;;;;;;12.90;7.03;;;6.50;99.90;;;;;;4920842;29;20301;-79
2023/04/25 06:11:19;;;;;;;22.67;10.20;;;6.60;99.90;;;;;;4917636;29;20208;-78
2023/04/25 06:30:18;;;;;;;11.87;3.97;;;6.90;99.90;;;;;;4874100;29;20216;-77
2023/04/25 06:33:02;;;;;;;14.60;4.60;;;7.00;99.90;;;;;;4859159;29;20276;-77
2023/04/25 06:35:50;;;;;;;13.20;5.03;;;7.00;99.90;;;;;;4860792;29;20303;-78
2023/04/25 06:38:30;;;;;;;14.47;4.93;;;7.10;99.90;;;;;;4821989;29;20249;-78
2023/04/25 06:40:57;;;;;;;17.57;4.90;;;7.20;99.90;;;;;;4874195;29;20255;-80
2023/04/25 06:43:24;;;;;;;11.10;5.20;;;7.30;99.90;;;;;;4875100;29;20218;-77
2023/04/25 06:45:51;;;;;;;11.47;4.60;;;7.40;99.90;;;;;;4859306;29;20230;-77
2023/04/25 06:48:18;;;;;;;9.23;3.53;;;7.60;99.90;;;;;;4874939;29;20210;-77
2023/04/25 06:50:49;;;;;;;10.70;4.07;;;7.70;99.90;;;;;;4903575;29;20213;-77
2023/04/25 06:53:16;;;;;;;10.93;3.83;;;7.70;99.90;;;;;;4933484;29;20639;-77
2023/04/25 06:55:43;;;;;;;11.53;2.87;;;7.80;99.90;;;;;;4918196;29;20287;-78
2023/04/25 06:58:10;;;;;;;12.53;2.70;;;7.80;99.90;;;;;;4933396;29;20239;-76
2023/04/25 07:00:36;;;;;;;8.90;2.73;;;7.90;99.90;;;;;;4918253;29;20316;-78
2023/04/25 07:03:03;;;;;;;10.80;3.07;;;8.10;99.90;;;;;;4932585;29;20208;-77
2023/04/25 07:05:30;;;;;;;9.10;2.70;;;8.30;99.90;;;;;;4935013;29;20730;-77
2023/04/25 07:07:57;;;;;;;6.77;2.50;;;8.50;99.90;;;;;;4930488;29;20816;-77
2023/04/25 07:10:25;;;;;;;7.17;2.57;;;8.60;99.90;;;;;;4923811;29;20229;-77
2023/04/25 07:12:51;;;;;;;6.17;2.33;;;8.80;99.90;;;;;;4923345;29;20216;-77
2023/04/25 07:15:18;;;;;;;7.57;2.57;;;8.80;99.90;;;;;;4918685;29;20287;-77
2023/04/25 07:17:45;;;;;;;7.53;2.67;;;9.10;99.90;;;;;;4920442;29;20338;-78
2023/04/25 07:20:12;;;;;;;10.60;2.80;;;11.10;99.90;;;;;;4932106;29;20236;-77
2023/04/25 07:22:39;;;;;;;11.43;2.90;;;11.10;99.90;;;;;;4920972;29;20628;-78
2023/04/25 07:25:06;;;;;;;8.67;2.53;;;12.20;99.90;;;;;;4921280;29;20281;-78
2023/04/25 07:27:33;;;;;;;8.80;2.47;;;12.70;99.90;;;;;;4929132;29;20211;-77
2023/04/25 07:29:59;;;;;;;6.88;2.70;;;13.10;99.90;;;;;;4933864;29;20244;-77
2023/04/25 07:32:26;;;;;;;7.50;2.20;;;13.80;99.90;;;;;;4932113;29;20245;-79
2023/04/25 07:34:53;;;;;;;9.77;2.72;;;15.10;99.90;;;;;;4932174;29;20737;-78
2023/04/25 07:37:20;;;;;;;6.65;1.55;;;15.20;99.90;;;;;;4933627;29;20771;-79
2023/04/25 07:39:47;;;;;;;4.95;1.45;;;15.70;99.90;;;;;;4932742;29;20279;-79
2023/04/25 07:42:14;;;;;;;5.80;1.63;;;15.90;99.90;;;;;;4933244;29;20292;-78
2023/04/25 07:44:42;;;;;;;5.85;1.77;;;15.70;99.90;;;;;;4933165;29;20261;-78
2023/04/25 07:47:10;;;;;;;9.10;2.13;;;15.20;99.90;;;;;;4932372;29;20253;-78
2023/04/25 07:49:37;;;;;;;8.55;2.17;;;15.00;99.90;;;;;;4933410;29;20209;-79
2023/04/25 07:52:05;;;;;;;6.75;1.45;;;15.20;99.90;;;;;;4932874;29;20213;-77
2023/04/25 07:54:32;;;;;;;2.90;1.10;;;14.70;99.90;;;;;;4932995;29;20597;-77
2023/04/25 07:56:59;;;;;;;3.00;1.23;;;13.30;99.90;;;;;;4935960;29;20706;-77
2023/04/25 07:59:26;;;;;;;5.03;1.30;;;12.00;99.90;;;;;;4932233;29;20272;-77
2023/04/25 08:01:57;;;;;;;5.40;1.40;;;;;;;;;;4929137;29;20636;-76
2023/04/25 08:04:25;;;;;;;5.07;1.83;;;9.80;99.90;;;;;;4932913;29;20540;-77
2023/04/25 08:06:53;;;;;;;4.23;1.60;;;9.20;99.90;;;;;;4931193;29;20314;-76
2023/04/25 08:09:20;;;;;;;3.30;1.40;;;8.90;99.90;;;;;;4925152;29;20284;-77
2023/04/25 08:11:47;;;;;;;5.33;1.60;;;8.60;99.90;;;;;;4920214;29;20217;-77
2023/04/25 08:14:14;;;;;;;4.50;1.70;;;8.60;99.90;;;;;;4928920;29;20637;-78
2023/04/25 08:16:42;;;;;;;4.90;1.50;;;8.60;99.90;;;;;;4930504;29;20252;-78
2023/04/25 08:19:10;;;;;;;4.23;1.70;;;8.70;99.90;;;;;;4933976;29;20252;-77
2023/04/25 08:21:36;;;;;;;4.83;1.63;;;9.00;99.90;;;;;;4933202;29;20206;-76
2023/04/25 08:24:03;;;;;;;3.97;1.50;;;9.40;99.90;;;;;;4930585;29;20642;-78
2023/04/25 08:26:30;;;;;;;4.17;1.60;;;9.80;99.90;;;;;;4916036;29;20268;-77
2023/04/25 08:28:57;;;;;;;3.43;1.47;;;10.10;99.90;;;;;;4930878;29;20252;-77
2023/04/25 08:31:24;;;;;;;5.10;1.63;;;10.30;99.90;;;;;;4932570;29;20201;-78
2023/04/25 08:33:51;;;;;;;5.63;1.90;;;10.40;99.90;;;;;;4932037;29;20291;-76
2023/04/25 08:36:18;;;;;;;6.57;2.20;;;10.90;99.90;;;;;;4932989;29;20220;-78
2023/04/25 08:39:04;;;;;;;6.33;3.83;;;11.50;99.90;;;;;;4931873;29;20237;-77
2023/04/25 08:41:31;;;;;;;5.77;2.10;;;12.30;99.90;;;;;;4932423;29;20209;-78
2023/04/25 08:44:00;;;;;;;6.50;2.10;;;12.90;99.90;;;;;;4931358;29;20205;-79
2023/04/25 08:46:28;;;;;;;5.63;1.90;;;13.40;99.90;;;;;;4932727;29;20213;-78
2023/04/25 08:48:59;;;;;;;6.30;1.87;;;13.60;99.90;;;;;;4931652;29;20213;-79
2023/04/25 08:51:28;;;;;;;6.20;1.60;;;13.80;99.90;;;;;;4931174;29;20216;-80
2023/04/25 08:53:56;;;;;;;13.43;3.50;;;13.90;99.90;;;;;;4931384;29;20821;-78
2023/04/25 08:56:28;;;;;;;6.63;2.00;;;13.90;99.90;;;;;;4934529;29;20221;-78
2023/04/25 08:58:56;;;;;;;6.20;1.88;;;13.90;99.90;;;;;;4914478;29;20248;-79
2023/04/25 09:01:24;;;;;;;7.22;1.80;;;13.80;99.90;;;;;;4932248;29;20586;-80
2023/04/25 09:03:50;;;;;;;6.05;1.70;;;13.70;99.90;;;;;;4930113;29;20671;-77
2023/04/25 09:06:19;;;;;;;5.57;1.90;;;13.60;99.90;;;;;;4929539;29;20204;-79
2023/04/25 09:08:45;;;;;;;4.47;1.90;;;13.30;99.90;;;;;;4931625;29;20236;-77
2023/04/25 09:11:14;;;;;;;3.17;1.07;;;12.80;99.90;;;;;;4933031;29;20454;-77
2023/04/25 09:13:41;;;;;;;4.03;1.53;;;12.10;99.90;;;;;;4933433;29;20223;-77
2023/04/25 09:16:08;;;;;;;4.47;1.20;;;11.50;99.90;;;;;;4934682;29;20780;-76
2023/04/25 09:18:35;;;;;;;2.23;1.10;;;11.00;99.90;;;;;;4931561;29;20705;-78
2023/04/25 09:21:10;;;;;;;4.07;1.03;;;10.70;99.90;;;;;;4931372;29;20244;-79
2023/04/25 09:23:48;;;;;;;4.00;1.30;;;10.50;99.90;;;;;;4935031;29;20212;-78
2023/04/25 09:26:19;;;;;;;4.30;1.20;;;10.50;99.90;;;;;;4934097;29;20247;-77
2023/04/25 09:28:49;;;;;;;4.07;1.50;;;10.60;99.90;;;;;;4937016;29;20894;-77
2023/04/25 09:31:24;;;;;;;3.40;1.47;;;11.40;99.90;;;;;;4935685;29;20308;-80
2023/04/25 09:34:01;;;;;;;7.97;1.47;;;11.60;99.90;;;;;;4937448;29;20283;-78
2023/04/25 09:36:30;;;;;;;5.77;1.33;;;11.90;99.90;;;;;;4935084;29;20206;-78
2023/04/25 09:39:00;;;;;;;3.23;1.03;;;12.40;99.90;;;;;;4935510;29;20296;-77
2023/04/25 09:41:27;;;;;;;6.43;1.60;;;12.70;99.90;;;;;;4934585;29;20547;-77
2023/04/25 09:43:58;;;;;;;6.30;1.50;;;12.80;99.90;;;;;;4936239;29;20597;-77
2023/04/25 09:46:38;;;;;;;14.70;2.80;;;12.90;99.90;;;;;;4935490;29;20216;-77
2023/04/25 09:49:07;;;;;;;4.77;1.43;;;13.00;99.90;;;;;;4919566;29;20267;-78
2023/04/25 09:51:34;;;;;;;5.37;1.67;;;13.20;99.90;;;;;;4939452;29;20675;-78
2023/04/25 09:54:01;;;;;;;4.93;1.20;;;13.50;99.90;;;;;;4935070;29;20206;-77
2023/04/25 09:56:35;;;;;;;4.10;1.37;;;13.90;99.90;;;;;;4935133;29;20662;-78
2023/04/25 09:59:03;;;;;;;7.10;1.60;;;13.40;99.90;;;;;;4932772;29;20264;-78
2023/04/25 10:01:30;;;;;;;7.90;2.60;;;13.30;99.90;;;;;;4935410;29;20382;-78
2023/04/25 10:03:58;;;;;;;5.47;1.67;;;12.90;99.90;;;;;;4937452;29;20729;-78
2023/04/25 10:06:27;;;;;;;9.37;1.90;;;12.60;99.90;;;;;;4935059;29;20193;-78
2023/04/25 10:08:55;;;;;;;7.10;2.30;;;12.40;99.90;;;;;;4929512;29;20305;-78
2023/04/25 10:11:26;;;;;;;9.63;2.00;;;12.10;99.90;;;;;;4930800;29;20607;-79
2023/04/25 10:13:52;;;;;;;2.70;1.53;;;12.00;99.90;;;;;;4924891;29;20292;-79
2023/04/25 10:16:20;;;;;;;6.37;1.60;;;11.70;99.90;;;;;;4935132;29;20602;-77
2023/04/25 10:18:48;;;;;;;10.73;2.17;;;11.50;99.90;;;;;;4933147;29;20237;-78
2023/04/25 10:21:16;;;;;;;7.67;1.83;;;11.20;99.90;;;;;;4934652;29;20193;-77
2023/04/25 10:23:43;;;;;;;7.07;2.07;;;10.70;99.90;;;;;;4924770;29;20209;-78
2023/04/25 10:26:12;;;;;;;6.23;2.00;;;10.40;99.90;;;;;;4936469;29;20617;-78
2023/04/25 10:28:59;;;;;;;5.47;1.70;;;10.20;99.90;;;;;;4932797;29;20308;-79
2023/04/25 10:31:27;;;;;;;5.57;1.60;;;10.20;99.90;;;;;;4932265;29;20219;-77
2023/04/25 10:33:54;;;;;;;4.27;1.47;;;10.20;99.90;;;;;;4933983;29;20729;-77
2023/04/25 10:36:23;;;;;;;4.07;1.50;;;10.20;99.90;;;;;;4932264;29;20300;-78
2023/04/25 10:38:50;;;;;;;8.40;1.70;;;10.30;99.90;;;;;;4916724;29;20237;-79
2023/04/25 10:41:20;;;;;;;3.17;1.40;;;10.50;99.90;;;;;;4935222;29;20297;-81
2023/04/25 10:43:58;;;;;;;10.63;1.90;;;10.50;99.90;;;;;;4936666;29;20268;-79
2023/04/25 10:46:27;;;;;;;7.63;2.10;;;10.70;99.90;;;;;;4933901;29;20292;-80
2023/04/25 10:48:55;;;;;;;4.13;1.50;;;10.80;99.90;;;;;;4937490;29;20213;-79
2023/04/25 10:51:25;;;;;;;4.33;1.43;;;11.00;99.90;;;;;;4934643;29;20205;-79
2023/04/25 10:53:55;;;;;;;4.83;1.53;;;11.30;99.90;;;;;;4933101;29;20268;-77
2023/04/25 10:56:31;;;;;;;6.30;1.60;;;11.70;99.90;;;;;;4931927;29;20205;-78
2023/04/25 10:59:08;;;;;;;7.57;2.50;;;11.10;99.90;;;;;;4930206;29;20236;-79
2023/04/25 11:01:40;;;;;;;5.30;1.80;;;11.70;99.90;;;;;;4934877;29;20209;-78
2023/04/25 11:04:33;;;;;;;4.70;1.67;;;11.60;99.90;;;;;;4936393;29;20213;-79
2023/04/25 11:07:10;;;;;;;6.77;2.27;;;11.20;99.90;;;;;;4934075;29;20209;-78
2023/04/25 11:09:45;;;;;;;7.80;1.63;;;11.40;99.90;;;;;;4934873;29;20205;-77
2023/04/25 11:12:12;;;;;;;6.60;1.60;;;11.20;99.90;;;;;;4932662;29;20205;-78
2023/04/25 11:14:39;;;;;;;3.37;1.30;;;11.10;99.90;;;;;;4933707;29;20225;-76
2023/04/25 11:17:11;;;;;;;3.97;1.50;;;11.20;99.90;;;;;;4935264;29;20636;-78
2023/04/25 11:19:38;;;;;;;6.97;1.60;;;11.10;99.90;;;;;;4935039;29;20771;-78
2023/04/25 11:22:06;;;;;;;6.50;2.60;;;11.30;99.90;;;;;;4933009;29;20761;-77
2023/04/25 11:24:34;;;;;;;8.20;1.60;;;11.50;99.90;;;;;;4916661;29;20608;-78
2023/04/25 11:27:03;;;;;;;4.87;1.53;;;11.70;99.90;;;;;;4913340;29;20239;-79
2023/04/25 11:29:32;;;;;;;8.33;1.73;;;12.00;99.90;;;;;;4932338;29;20350;-78
2023/04/25 11:32:00;;;;;;;4.93;1.70;;;12.10;99.90;;;;;;4933219;29;20201;-77
2023/04/25 11:34:35;;;;;;;2.57;1.37;;;12.10;99.90;;;;;;4916278;29;20276;-79
2023/04/25 11:37:02;;;;;;;5.33;1.40;;;12.10;99.90;;;;;;4931166;29;20213;-78
2023/04/25 11:39:30;;;;;;;6.77;1.90;;;12.00;99.90;;;;;;4932394;29;20355;-77
2023/04/25 11:41:57;;;;;;;3.87;1.30;;;11.90;99.90;;;;;;4929058;29;20296;-78
2023/04/25 11:44:25;;;;;;;5.50;1.40;;;11.90;99.90;;;;;;4934869;29;20783;-77
2023/04/25 11:46:52;;;;;;;6.97;1.70;;;11.80;99.90;;;;;;4916554;29;20205;-78
2023/04/25 11:49:18;;;;;;;6.03;1.67;;;11.60;99.90;;;;;;4936094;29;20405;-78
2023/04/25 11:51:47;;;;;;;5.57;1.67;;;11.50;99.90;;;;;;4931586;29;20201;-77
2023/04/25 11:54:15;;;;;;;7.80;2.00;;;11.70;99.90;;;;;;4932751;29;20216;-76
2023/04/25 11:56:43;;;;;;;6.17;1.50;;;11.80;99.90;;;;;;4927810;28;20202;-78
2023/04/25 11:59:11;;;;;;;6.63;1.70;;;11.70;99.90;;;;;;4933101;29;20375;-78
2023/04/25 12:01:40;;;;;;;5.50;1.87;;;11.60;99.90;;;;;;4931028;29;20222;-81
2023/04/25 12:04:19;;;;;;;6.83;1.93;;;11.50;99.90;;;;;;4934646;29;20284;-79
2023/04/25 12:06:47;;;;;;;5.17;1.60;;;11.30;99.90;;;;;;4931575;29;20212;-79
2023/04/25 12:09:23;;;;;;;4.87;1.40;;;11.30;99.90;;;;;;4918177;29;21330;-79
2023/04/25 12:11:55;;;;;;;3.33;1.40;;;11.60;99.90;;;;;;4925808;29;20732;-78
2023/04/25 12:14:24;;;;;;;5.93;1.70;;;12.00;99.90;;;;;;4937519;29;20225;-78
2023/04/25 12:16:51;;;;;;;4.73;1.33;;;12.40;99.90;;;;;;4912648;29;20233;-78
2023/04/25 12:19:20;;;;;;;3.40;1.60;;;12.80;99.90;;;;;;4931084;29;20807;-78
2023/04/25 12:21:48;;;;;;;3.73;1.23;;;13.20;99.90;;;;;;4929681;29;20366;-79
2023/04/25 12:24:26;;;;;;;4.63;1.47;;;13.20;99.90;;;;;;4932502;29;20201;-78
2023/04/25 12:26:59;;;;;;;5.67;1.10;;;13.00;99.90;;;;;;4930314;29;20287;-77
2023/04/25 12:29:29;;;;;;;3.03;1.30;;;13.10;99.90;;;;;;4930677;29;20225;-77
2023/04/25 12:32:08;;;;;;;3.70;1.20;;;13.30;99.90;;;;;;4930803;29;20650;-77
2023/04/25 12:34:35;;;;;;;3.13;1.27;;;13.00;99.90;;;;;;4933203;29;20264;-78
2023/04/25 12:37:02;;;;;;;3.13;1.20;;;12.90;99.90;;;;;;4930099;29;20209;-78
2023/04/25 12:39:29;;;;;;;3.03;1.07;;;12.60;99.90;;;;;;4936803;29;20308;-77
2023/04/25 12:42:03;;;;;;;4.00;1.20;;;12.60;99.90;;;;;;4931607;29;20702;-77
2023/04/25 12:44:34;;;;;;;3.20;1.20;;;12.60;99.90;;;;;;4932093;29;20225;-78
2023/04/25 12:47:02;;;;;;;3.87;1.37;;;12.50;99.90;;;;;;4930030;29;20217;-77
2023/04/25 12:49:30;;;;;;;2.80;1.27;;;12.50;99.90;;;;;;4934286;29;20221;-77
2023/04/25 12:51:57;;;;;;;7.10;1.40;;;12.90;99.90;;;;;;4930094;29;20209;-78
2023/04/25 12:54:25;;;;;;;4.53;1.40;;;12.90;99.90;;;;;;4931109;29;20527;-77
2023/04/25 12:56:52;;;;;;;3.63;1.40;;;12.80;99.90;;;;;;4929723;29;20582;-78
2023/04/25 12:59:20;;;;;;;8.20;1.90;;;12.70;99.90;;;;;;4931805;29;20387;-79
2023/04/25 13:01:47;;;;;;;6.93;1.70;;;12.30;99.90;;;;;;4930144;29;20201;-78
2023/04/25 13:04:15;;;;;;;4.17;1.60;;;12.30;99.90;;;;;;4932391;29;20216;-78
2023/04/25 13:06:43;;;;;;;7.57;2.10;;;12.30;99.90;;;;;;4931701;29;20209;-77
2023/04/25 13:09:12;;;;;;;4.97;1.60;;;12.10;99.90;;;;;;4935153;29;20622;-78
2023/04/25 13:11:40;;;;;;;6.13;1.50;;;12.00;99.90;;;;;;4931184;29;20295;-78
2023/04/25 13:14:07;;;;;;;7.80;1.87;;;12.10;99.90;;;;;;4932047;29;20213;-79
2023/04/25 13:16:34;;;;;;;5.80;1.53;;;12.10;99.90;;;;;;4930172;29;20200;-77
2023/04/25 13:19:01;;;;;;;3.73;1.57;;;12.10;99.90;;;;;;4936636;29;20552;-76
2023/04/25 13:21:31;;;;;;;4.90;1.60;;;11.80;99.90;;;;;;4931310;29;20288;-77
2023/04/25 13:23:58;;;;;;;4.40;1.57;;;11.60;99.90;;;;;;4930395;29;20205;-77
2023/04/25 13:26:25;;;;;;;5.10;2.53;;;11.60;99.90;;;;;;4929449;29;20240;-77
2023/04/25 13:28:52;;;;;;;3.47;1.20;;;11.50;99.90;;;;;;4930529;29;20674;-76